Wilson Lahn — 8PUO — position and weather

sailwx.info

Track history (hours):
 
Tides and Currents Weather Stations Pressure Air Temp Water Temp Dewpoint Dewpoint Depression Visibility Wind Speed Wind Dir Waves Ship Positions

Wilson Lahn

Last reported at 2014-Dec-21 07:33 UTC. Time now 2014-Dec-21 14:27 UTC.
Position N 54°15' E 005°06'.

Length 83 m; draft 4.6 m.

Type: Cargo ship. MMSI: 314259000.

Date/timePositionNaut miles runAvg speedWind from/ knotsBaromVisibWave heightAir tempDewpointWater temp
2014-Dec-21 07:33N 54°15' E 005°06'1010.3
2014-Dec-21 06:34N 54°06' E 004°59'10 9.7
2014-Dec-21 05:33N 53°56' E 004°56'10 9.6
2014-Dec-21 04:33N 53°47' E 004°54'10 9.9
2014-Dec-21 03:33N 53°37' E 004°51'1110.6
2014-Dec-21 02:33N 53°27' E 004°43'62 8.9
2014-Dec-20 19:29N 52°32' E 003°55'6 6.7
2014-Dec-20 18:32N 52°25' E 003°54'7 7.0
2014-Dec-20 17:33N 52°19' E 003°52'7 7.0
2014-Dec-20 16:33N 52°12' E 003°54'7 7.5
2014-Dec-20 15:33N 52°05' E 003°58'7 7.4
2014-Dec-20 14:33N 51°59' E 004°05'9 9.2
2014-Dec-20 13:33N 51°54' E 004°18'4 4.4
2014-Dec-20 12:33N 51°55' E 004°25'0 0.0
2014-Dec-20 11:33N 51°55' E 004°25'0 0.0
2014-Dec-20 10:33N 51°55' E 004°25'0 0.0
2014-Dec-20 09:33N 51°55' E 004°25'0 0.0
2014-Dec-20 08:33N 51°55' E 004°25'0 0.0
2014-Dec-20 07:33N 51°55' E 004°25'0 0.0
2014-Dec-20 06:33N 51°55' E 004°25'0 0.0
2014-Dec-20 05:33N 51°55' E 004°25'0 0.0
2014-Dec-20 04:33N 51°55' E 004°25'0 0.0
2014-Dec-20 03:33N 51°55' E 004°25'0 0.0
2014-Dec-20 02:30N 51°55' E 004°25'3 3.6
2014-Dec-20 01:34N 51°55' E 004°30'9 8.5
2014-Dec-20 00:34N 51°49' E 004°40'1010.0
2014-Dec-19 23:33N 51°50' E 004°57'10 9.8
2014-Dec-19 22:34N 51°49' E 005°12'9 8.5
2014-Dec-19 21:33N 51°52' E 005°25'  
2014-Dec-16 18:21N 51°53' E 005°43'7 8.3
2014-Dec-16 17:32N 51°54' E 005°32'7 7.2
2014-Dec-16 16:33N 51°50' E 005°23'7 7.0
2014-Dec-16 15:33N 51°49' E 005°12'9 8.7
2014-Dec-16 14:33N 51°49' E 004°58'9 9.3
2014-Dec-16 13:34N 51°49' E 004°43'8 7.9
2014-Dec-16 12:33N 51°54' E 004°33'3 2.6
2014-Dec-16 11:33N 51°54' E 004°28'0 0.0
2014-Dec-16 10:33N 51°54' E 004°28'1 0.9
2014-Dec-16 09:33N 51°54' E 004°27'10 9.5
2014-Dec-16 08:34N 51°56' E 004°12'1010.2
2014-Dec-16 07:34N 52°00' E 003°57'9 8.8
2014-Dec-16 06:33N 52°07' E 003°46'10 9.8
2014-Dec-16 05:33N 52°16' E 003°47'1210.1
2014-Dec-16 04:24N 52°28' E 003°50'910.2
2014-Dec-16 03:32N 52°36' E 003°53'1010.4
2014-Dec-16 02:33N 52°47' E 003°57'85 8.5
2014-Dec-15 16:31N 54°06' E 004°50'278 7.1
2014-Dec-14 01:33N 58°44' E 005°15'10 9.6
2014-Dec-14 00:34N 58°53' E 005°17'10 9.6
2014-Dec-13 23:33N 59°03' E 005°19'10 9.6
2014-Dec-13 22:33N 59°12' E 005°20'10 9.7
2014-Dec-13 21:33N 59°22' E 005°18'  
Track history (hours):
 
Tides and Currents Weather Stations Pressure Air Temp Water Temp Dewpoint Dewpoint Depression Visibility Wind Speed Wind Dir Waves Ship Positions

Wilson Lahn

Last reported at 2014-Dec-21 07:33 UTC. Time now 2014-Dec-21 14:27 UTC.
Position N 54°15' E 005°06'.

Length 83 m; draft 4.6 m.

Type: Cargo ship. MMSI: 314259000.

Date/timePositionNaut miles runAvg speedWind from/ knotsBaromVisibWave heightAir tempDewpointWater temp
2014-Dec-21 07:33N 54°15' E 005°06'1010.3
2014-Dec-21 06:34N 54°06' E 004°59'10 9.7
2014-Dec-21 05:33N 53°56' E 004°56'10 9.6
2014-Dec-21 04:33N 53°47' E 004°54'10 9.9
2014-Dec-21 03:33N 53°37' E 004°51'1110.6
2014-Dec-21 02:33N 53°27' E 004°43'62 8.9
2014-Dec-20 19:29N 52°32' E 003°55'6 6.7
2014-Dec-20 18:32N 52°25' E 003°54'7 7.0
2014-Dec-20 17:33N 52°19' E 003°52'7 7.0
2014-Dec-20 16:33N 52°12' E 003°54'7 7.5
2014-Dec-20 15:33N 52°05' E 003°58'7 7.4
2014-Dec-20 14:33N 51°59' E 004°05'9 9.2
2014-Dec-20 13:33N 51°54' E 004°18'4 4.4
2014-Dec-20 12:33N 51°55' E 004°25'0 0.0
2014-Dec-20 11:33N 51°55' E 004°25'0 0.0
2014-Dec-20 10:33N 51°55' E 004°25'0 0.0
2014-Dec-20 09:33N 51°55' E 004°25'0 0.0
2014-Dec-20 08:33N 51°55' E 004°25'0 0.0
2014-Dec-20 07:33N 51°55' E 004°25'0 0.0
2014-Dec-20 06:33N 51°55' E 004°25'0 0.0
2014-Dec-20 05:33N 51°55' E 004°25'0 0.0
2014-Dec-20 04:33N 51°55' E 004°25'0 0.0
2014-Dec-20 03:33N 51°55' E 004°25'0 0.0
2014-Dec-20 02:30N 51°55' E 004°25'3 3.6
2014-Dec-20 01:34N 51°55' E 004°30'9 8.5
2014-Dec-20 00:34N 51°49' E 004°40'1010.0
2014-Dec-19 23:33N 51°50' E 004°57'10 9.8
2014-Dec-19 22:34N 51°49' E 005°12'9 8.5
2014-Dec-19 21:33N 51°52' E 005°25'  
2014-Dec-16 18:21N 51°53' E 005°43'7 8.3
2014-Dec-16 17:32N 51°54' E 005°32'7 7.2
2014-Dec-16 16:33N 51°50' E 005°23'7 7.0
2014-Dec-16 15:33N 51°49' E 005°12'9 8.7
2014-Dec-16 14:33N 51°49' E 004°58'9 9.3
2014-Dec-16 13:34N 51°49' E 004°43'8 7.9
2014-Dec-16 12:33N 51°54' E 004°33'3 2.6
2014-Dec-16 11:33N 51°54' E 004°28'0 0.0
2014-Dec-16 10:33N 51°54' E 004°28'1 0.9
2014-Dec-16 09:33N 51°54' E 004°27'10 9.5
2014-Dec-16 08:34N 51°56' E 004°12'1010.2
2014-Dec-16 07:34N 52°00' E 003°57'9 8.8
2014-Dec-16 06:33N 52°07' E 003°46'10 9.8
2014-Dec-16 05:33N 52°16' E 003°47'1210.1
2014-Dec-16 04:24N 52°28' E 003°50'910.2
2014-Dec-16 03:32N 52°36' E 003°53'1010.4
2014-Dec-16 02:33N 52°47' E 003°57'85 8.5
2014-Dec-15 16:31N 54°06' E 004°50'278 7.1
2014-Dec-14 01:33N 58°44' E 005°15'10 9.6
2014-Dec-14 00:34N 58°53' E 005°17'10 9.6
2014-Dec-13 23:33N 59°03' E 005°19'10 9.6
2014-Dec-13 22:33N 59°12' E 005°20'10 9.7
2014-Dec-13 21:33N 59°22' E 005°18'  

Dump ship's entire track history